Time;durP1;ratioP1;P1;durP2;ratioP2;P2;SDS_P1;SDS_P2;PMS_P1;PMS_P2;Temp;Humidity;BMP_temperature;BMP_pressure;BME280_temperature;BME280_humidity;BME280_pressure;Samples;Min_cycle;Max_cycle;Signal;HPM_P1;HPM_P2
2023/07/05 00:01:03;;;;;;;10.48;3.28;;;;;;;;;;5046999;28;20037;-54
2023/07/05 00:03:30;;;;;;;9.07;4.03;;;;;;;;;;5049147;28;20060;-55
2023/07/05 00:05:57;;;;;;;9.75;3.70;;;;;;;;;;5052088;28;20031;-54
2023/07/05 00:08:24;;;;;;;9.82;3.78;;;;;;;;;;5053964;28;20056;-49
2023/07/05 00:11:02;;;;;;;11.60;4.28;;;;;;;;;;5045984;28;20025;-53
2023/07/05 00:13:29;;;;;;;12.52;4.50;;;;;;;;;;5047712;28;20025;-52
2023/07/05 00:15:56;;;;;;;12.07;4.38;;;;;;;;;;5042953;28;20116;-53
2023/07/05 00:18:23;;;;;;;11.02;4.45;;;;;;;;;;5039004;28;20046;-55
2023/07/05 00:20:50;;;;;;;18.00;4.13;;;;;;;;;;5034346;28;20050;-51
2023/07/05 00:23:17;;;;;;;13.68;4.00;;;;;;;;;;5042188;28;20028;-54
2023/07/05 00:25:44;;;;;;;10.70;4.35;;;;;;;;;;5040741;28;20080;-53
2023/07/05 00:28:11;;;;;;;14.75;3.78;;;;;;;;;;5052047;28;20033;-52
2023/07/05 00:30:42;;;;;;;17.60;4.13;;;;;;;;;;5041339;28;20036;-51
2023/07/05 00:33:09;;;;;;;15.65;3.80;;;;;;;;;;5043531;28;20435;-51
2023/07/05 00:35:37;;;;;;;19.13;4.43;;;;;;;;;;5053958;28;20021;-52
2023/07/05 00:38:04;;;;;;;12.63;3.78;;;;;;;;;;5054142;28;20135;-51
2023/07/05 00:40:31;;;;;;;16.13;4.18;;;;;;;;;;5053903;28;20029;-51
2023/07/05 00:42:58;;;;;;;18.52;4.88;;;;;;;;;;5053328;28;20089;-54
2023/07/05 00:45:39;;;;;;;19.70;5.18;;;;;;;;;;5046632;28;20034;-53
2023/07/05 00:48:06;;;;;;;27.55;6.57;;;;;;;;;;5034564;28;20032;-52
2023/07/05 00:50:37;;;;;;;27.00;6.80;;;;;;;;;;5047103;28;20083;-51
2023/07/05 00:53:05;;;;;;;36.25;7.47;;;;;;;;;;5040094;28;20051;-55
2023/07/05 00:55:32;;;;;;;40.90;7.22;;;;;;;;;;5052939;28;20371;-61
2023/07/05 00:58:00;;;;;;;50.00;8.60;;;;;;;;;;5042614;28;20048;-55
2023/07/05 01:00:28;;;;;;;48.83;8.18;;;;;;;;;;5043583;28;20036;-59
2023/07/05 01:02:57;;;;;;;32.05;7.35;;;;;;;;;;5052143;28;20178;-58
2023/07/05 01:05:26;;;;;;;32.85;9.60;;;;;;;;;;5047424;28;20438;-58
2023/07/05 01:07:53;;;;;;;30.92;8.85;;;;;;;;;;5037705;28;20039;-57
2023/07/05 01:10:21;;;;;;;29.02;9.25;;;;;;;;;;5048956;28;20074;-58
2023/07/05 01:12:48;;;;;;;29.35;9.30;;;;;;;;;;5033668;28;20034;-58
2023/07/05 01:15:27;;;;;;;30.50;10.52;;;;;;;;;;5033671;28;20033;-60
2023/07/05 01:18:16;;;;;;;34.25;11.40;;;;;;;;;;5032545;28;20045;-59
2023/07/05 01:20:43;;;;;;;37.45;11.50;;;;;;;;;;5033685;28;20028;-60
2023/07/05 01:23:10;;;;;;;35.95;11.13;;;;;;;;;;5033374;28;20040;-58
2023/07/05 01:25:40;;;;;;;37.05;10.93;;;;;;;;;;5033447;28;20121;-58
2023/07/05 01:28:27;;;;;;;35.83;9.90;;;;;;;;;;5033413;28;20092;-59
2023/07/05 01:31:12;;;;;;;39.47;10.05;;;;;;;;;;5033519;28;20034;-58
2023/07/05 01:33:56;;;;;;;32.60;9.40;;;;;;;;;;5033406;28;20507;-59
2023/07/05 01:36:23;;;;;;;25.23;9.45;;;;;;;;;;5033262;28;20040;-58
2023/07/05 01:38:50;;;;;;;36.60;9.35;;;;;;;;;;5039655;28;20029;-58
2023/07/05 01:41:17;;;;;;;28.65;8.93;;;;;;;;;;5039787;28;20492;-59
2023/07/05 01:43:47;;;;;;;35.88;9.02;;;;;;;;;;5033131;28;20140;-58
2023/07/05 01:46:20;;;;;;;31.98;8.55;;;;;;;;;;5033076;28;20500;-60
2023/07/05 01:48:53;;;;;;;36.42;7.60;;;;;;;;;;5033050;28;20117;-62
2023/07/05 01:51:39;;;;;;;35.90;7.53;;;;;;;;;;5048076;28;20098;-62
2023/07/05 01:54:10;;;;;;;33.33;7.60;;;;;;;;;;5032424;28;20439;-57
2023/07/05 01:56:48;;;;;;;38.38;8.00;;;;;;;;;;5038381;28;20068;-60
2023/07/05 01:59:16;;;;;;;25.75;7.43;;;;;;;;;;5049697;28;20040;-57
2023/07/05 02:01:44;;;;;;;31.50;8.00;;;;;;;;;;5051022;28;20033;-56
2023/07/05 02:04:13;;;;;;;26.38;7.50;;;;;;;;;;5051959;28;20063;-60
2023/07/05 02:06:40;;;;;;;25.65;6.38;;;;;;;;;;5051799;28;20032;-59
2023/07/05 02:09:07;;;;;;;30.95;6.30;;;;;;;;;;5052099;28;20036;-57
2023/07/05 02:11:35;;;;;;;34.22;7.80;;;;;;;;;;5051312;28;20086;-56
2023/07/05 02:14:02;;;;;;;30.92;7.28;;;;;;;;;;5051286;28;20082;-62
2023/07/05 02:16:29;;;;;;;31.08;6.63;;;;;;;;;;5051745;28;20065;-61
2023/07/05 02:18:56;;;;;;;24.73;6.45;;;;;;;;;;5051250;28;20029;-61
2023/07/05 02:21:23;;;;;;;30.23;6.53;;;;;;;;;;5051665;28;20371;-60
2023/07/05 02:23:50;;;;;;;24.50;5.63;;;;;;;;;;5051562;28;20052;-61
2023/07/05 02:26:17;;;;;;;22.30;6.43;;;;;;;;;;5051732;28;20049;-59
2023/07/05 02:28:44;;;;;;;23.75;6.43;;;;;;;;;;5051814;28;20498;-61
2023/07/05 02:31:11;;;;;;;25.77;6.00;;;;;;;;;;5051619;28;20031;-56
2023/07/05 02:33:45;;;;;;;21.52;6.18;;;;;;;;;;5051656;28;20037;-57
2023/07/05 02:36:13;;;;;;;24.95;6.28;;;;;;;;;;5048899;28;20032;-57
2023/07/05 02:38:41;;;;;;;25.08;6.20;;;;;;;;;;5051640;28;20035;-61
2023/07/05 02:41:09;;;;;;;24.08;5.95;;;;;;;;;;5051447;28;20059;-58
2023/07/05 02:43:36;;;;;;;18.52;6.03;;;;;;;;;;5051342;28;20032;-58
2023/07/05 02:46:05;;;;;;;16.45;4.88;;;;;;;;;;5049023;28;20158;-57
2023/07/05 02:48:32;;;;;;;21.63;5.65;;;;;;;;;;5051537;28;20486;-58
2023/07/05 02:50:59;;;;;;;18.75;5.40;;;;;;;;;;5051440;28;20047;-58
2023/07/05 02:53:26;;;;;;;17.35;5.20;;;;;;;;;;5051314;28;20055;-57
2023/07/05 02:55:53;;;;;;;18.40;5.38;;;;;;;;;;5051701;28;20037;-58
2023/07/05 02:58:20;;;;;;;17.50;5.20;;;;;;;;;;5051958;28;20120;-58
2023/07/05 03:00:48;;;;;;;15.75;5.10;;;;;;;;;;5051932;28;20024;-58
2023/07/05 03:03:15;;;;;;;12.75;4.70;;;;;;;;;;5051881;28;20029;-61
2023/07/05 03:05:42;;;;;;;19.73;5.07;;;;;;;;;;5051873;28;20052;-59
2023/07/05 03:08:09;;;;;;;21.23;5.75;;;;;;;;;;5051837;28;20115;-61
2023/07/05 03:10:39;;;;;;;11.75;4.82;;;;;;;;;;5051731;28;20029;-60
2023/07/05 03:13:07;;;;;;;14.25;4.80;;;;;;;;;;5051708;28;20100;-60
2023/07/05 03:15:34;;;;;;;20.10;4.88;;;;;;;;;;5051771;28;20591;-60
2023/07/05 03:18:01;;;;;;;15.88;4.63;;;;;;;;;;5051735;28;20052;-61
2023/07/05 03:20:28;;;;;;;20.67;4.75;;;;;;;;;;5051726;28;20039;-61
2023/07/05 03:22:55;;;;;;;15.52;4.80;;;;;;;;;;5051485;28;20513;-60
2023/07/05 03:25:22;;;;;;;15.50;4.43;;;;;;;;;;5051424;28;20055;-62
2023/07/05 03:27:49;;;;;;;13.90;3.83;;;;;;;;;;5051648;28;20040;-61
2023/07/05 03:30:16;;;;;;;14.65;4.20;;;;;;;;;;5051613;28;20031;-60
2023/07/05 03:32:44;;;;;;;11.98;3.60;;;;;;;;;;5051395;28;20048;-62
2023/07/05 03:35:11;;;;;;;11.98;3.85;;;;;;;;;;5051461;28;20051;-61
2023/07/05 03:37:38;;;;;;;11.48;3.65;;;;;;;;;;5051395;28;20619;-59
2023/07/05 03:40:05;;;;;;;14.15;4.00;;;;;;;;;;5051083;28;20033;-61
2023/07/05 03:42:32;;;;;;;17.70;4.07;;;;;;;;;;5051335;28;20068;-61
2023/07/05 03:44:59;;;;;;;10.65;3.70;;;;;;;;;;5051411;28;20368;-61
2023/07/05 03:47:27;;;;;;;11.75;4.10;;;;;;;;;;5051381;28;20021;-62
2023/07/05 03:49:55;;;;;;;13.50;4.20;;;;;;;;;;5051381;28;20041;-61
2023/07/05 03:52:23;;;;;;;11.07;3.83;;;;;;;;;;5049784;28;20025;-57
2023/07/05 03:54:50;;;;;;;12.80;3.78;;;;;;;;;;5051204;28;20102;-54
2023/07/05 03:57:17;;;;;;;9.18;3.33;;;;;;;;;;5051143;28;20061;-58
2023/07/05 03:59:44;;;;;;;12.27;3.35;;;;;;;;;;5051187;28;20040;-58
2023/07/05 04:02:11;;;;;;;14.57;3.80;;;;;;;;;;5051040;28;20034;-55
2023/07/05 04:04:38;;;;;;;12.85;4.25;;;;;;;;;;5051261;28;20029;-57
2023/07/05 04:07:05;;;;;;;9.82;3.97;;;;;;;;;;5051221;28;20029;-57
2023/07/05 04:09:32;;;;;;;8.73;3.30;;;;;;;;;;5051197;28;20021;-57
2023/07/05 04:11:59;;;;;;;9.43;3.58;;;;;;;;;;5050998;28;20025;-57
2023/07/05 04:14:26;;;;;;;12.98;3.67;;;;;;;;;;5051213;28;20037;-56
2023/07/05 04:16:53;;;;;;;7.97;2.97;;;;;;;;;;5050978;28;20195;-56
2023/07/05 04:19:20;;;;;;;13.25;3.35;;;;;;;;;;5051035;28;20033;-57
2023/07/05 04:21:47;;;;;;;9.73;3.25;;;;;;;;;;5051065;28;20032;-56
2023/07/05 04:24:14;;;;;;;9.45;3.15;;;;;;;;;;5050842;28;20037;-58
2023/07/05 04:26:41;;;;;;;8.70;3.28;;;;;;;;;;5050959;28;20593;-57
2023/07/05 04:29:08;;;;;;;8.57;3.15;;;;;;;;;;5051036;28;20027;-57
2023/07/05 04:31:35;;;;;;;8.68;3.15;;;;;;;;;;5050887;28;20035;-57
2023/07/05 04:34:02;;;;;;;9.18;2.97;;;;;;;;;;5050950;28;20029;-57
2023/07/05 04:36:29;;;;;;;10.80;3.33;;;;;;;;;;5050900;28;20040;-57
2023/07/05 04:38:57;;;;;;;10.68;3.50;;;;;;;;;;5050888;28;20086;-56
2023/07/05 04:41:25;;;;;;;8.32;2.95;;;;;;;;;;5047739;28;20045;-57
2023/07/05 04:43:52;;;;;;;8.57;3.00;;;;;;;;;;5050840;28;20068;-55
2023/07/05 04:46:19;;;;;;;7.50;2.97;;;;;;;;;;5050865;28;20049;-57
2023/07/05 04:48:46;;;;;;;9.90;3.10;;;;;;;;;;5050866;28;20378;-57
2023/07/05 04:51:13;;;;;;;6.05;2.50;;;;;;;;;;5050739;28;20529;-57
2023/07/05 04:53:40;;;;;;;6.25;2.60;;;;;;;;;;5054094;28;20040;-57
2023/07/05 04:56:11;;;;;;;7.47;2.55;;;;;;;;;;5054233;28;20036;-57
2023/07/05 04:58:38;;;;;;;7.50;2.80;;;;;;;;;;5054208;28;20029;-60
2023/07/05 05:01:07;;;;;;;9.98;3.00;;;;;;;;;;5054351;28;20498;-59
2023/07/05 05:03:34;;;;;;;6.97;2.63;;;;;;;;;;5054000;28;20364;-60
2023/07/05 05:06:01;;;;;;;6.25;2.50;;;;;;;;;;5054122;28;20040;-60
2023/07/05 05:08:29;;;;;;;6.55;2.80;;;;;;;;;;5054156;28;20662;-61
2023/07/05 05:10:57;;;;;;;5.72;2.33;;;;;;;;;;5054097;28;20439;-60
2023/07/05 05:13:25;;;;;;;8.18;2.70;;;;;;;;;;5067778;28;20029;-57
2023/07/05 05:15:52;;;;;;;5.78;2.53;;;;;;;;;;5073915;28;20047;-57
2023/07/05 05:18:19;;;;;;;8.05;2.40;;;;;;;;;;5074024;28;20063;-57
2023/07/05 05:20:46;;;;;;;5.53;2.35;;;;;;;;;;5073972;28;20536;-57
2023/07/05 05:23:13;;;;;;;6.22;2.22;;;;;;;;;;5073802;28;20050;-57
2023/07/05 05:25:44;;;;;;;4.40;2.05;;;;;;;;;;5073683;28;20067;-61
2023/07/05 05:28:12;;;;;;;6.85;2.40;;;;;;;;;;5073732;28;20573;-61
2023/07/05 05:30:39;;;;;;;5.35;2.33;;;;;;;;;;5073783;28;20100;-61
2023/07/05 05:33:06;;;;;;;3.65;1.80;;;;;;;;;;5073629;28;20024;-61
2023/07/05 05:35:34;;;;;;;6.45;2.42;;;;;;;;;;5073601;28;20041;-61
2023/07/05 05:38:02;;;;;;;5.07;1.98;;;;;;;;;;5073508;28;20117;-61
2023/07/05 05:40:30;;;;;;;4.88;2.13;;;;;;;;;;5073526;28;20036;-61
2023/07/05 05:42:58;;;;;;;4.80;1.80;;;;;;;;;;5073204;28;20506;-61
2023/07/05 05:45:25;;;;;;;5.38;2.00;;;;;;;;;;5073427;28;20035;-57
2023/07/05 05:47:52;;;;;;;4.53;1.85;;;;;;;;;;5073371;28;20028;-56
2023/07/05 05:50:22;;;;;;;4.80;1.92;;;;;;;;;;5073355;28;20560;-58
2023/07/05 05:52:49;;;;;;;4.00;1.83;;;;;;;;;;5073037;28;20407;-57
2023/07/05 05:55:16;;;;;;;3.80;1.63;;;;;;;;;;5073279;28;20024;-57
2023/07/05 05:57:43;;;;;;;5.13;2.00;;;;;;;;;;5073176;28;20111;-57
2023/07/05 06:00:11;;;;;;;3.65;1.65;;;;;;;;;;5073140;28;20437;-61
2023/07/05 06:02:38;;;;;;;4.70;1.80;;;;;;;;;;5055290;28;20037;-57
2023/07/05 06:05:06;;;;;;;3.80;1.58;;;;;;;;;;5052966;28;20036;-57
2023/07/05 06:07:33;;;;;;;4.93;2.00;;;;;;;;;;5052951;28;20029;-57
2023/07/05 06:10:00;;;;;;;3.55;1.80;;;;;;;;;;5052944;28;20051;-57
2023/07/05 06:12:27;;;;;;;6.65;2.22;;;;;;;;;;5052776;28;20040;-57
2023/07/05 06:14:54;;;;;;;4.43;1.65;;;;;;;;;;5052754;28;20021;-57
2023/07/05 06:17:21;;;;;;;4.65;1.73;;;;;;;;;;5052684;28;20025;-57
2023/07/05 06:19:48;;;;;;;3.05;1.80;;;;;;;;;;5052728;28;20028;-56
2023/07/05 06:22:15;;;;;;;3.65;1.65;;;;;;;;;;5052592;28;20027;-57
2023/07/05 06:24:42;;;;;;;4.55;1.40;;;;;;;;;;5052512;28;20052;-58
2023/07/05 06:27:09;;;;;;;4.90;1.80;;;;;;;;;;5052643;28;20025;-58
2023/07/05 06:29:36;;;;;;;4.97;1.65;;;;;;;;;;5052583;28;20024;-57
2023/07/05 06:32:03;;;;;;;3.45;1.58;;;;;;;;;;5052391;28;20020;-57
2023/07/05 06:34:30;;;;;;;5.22;1.58;;;;;;;;;;5052487;28;20119;-58
2023/07/05 06:36:57;;;;;;;5.03;1.42;;;;;;;;;;5052318;28;20028;-57
2023/07/05 06:39:24;;;;;;;4.63;1.70;;;;;;;;;;5052372;28;20073;-58
2023/07/05 06:41:51;;;;;;;3.03;1.63;;;;;;;;;;5052263;28;20025;-57
2023/07/05 06:44:18;;;;;;;4.28;1.55;;;;;;;;;;5052267;28;20024;-56
2023/07/05 06:46:45;;;;;;;3.63;1.50;;;;;;;;;;5052245;28;20025;-57
2023/07/05 06:49:12;;;;;;;3.65;1.50;;;;;;;;;;5052221;28;20021;-56
2023/07/05 06:51:39;;;;;;;5.68;1.63;;;;;;;;;;5052084;28;20024;-57
2023/07/05 06:54:06;;;;;;;2.50;1.25;;;;;;;;;;5052086;28;20032;-57
2023/07/05 06:56:35;;;;;;;3.47;1.35;;;;;;;;;;5051999;28;20075;-57
2023/07/05 06:59:03;;;;;;;2.67;1.23;;;;;;;;;;5052018;28;20025;-57
2023/07/05 07:01:33;;;;;;;3.15;1.48;;;;;;;;;;5052107;28;20110;-57
2023/07/05 07:04:00;;;;;;;3.38;1.63;;;;;;;;;;5052005;28;20108;-60
2023/07/05 07:06:27;;;;;;;2.40;1.30;;;;;;;;;;5051972;28;20033;-61
2023/07/05 07:08:54;;;;;;;2.47;1.30;;;;;;;;;;5051974;28;20055;-61
2023/07/05 07:11:21;;;;;;;3.88;1.25;;;;;;;;;;5051802;28;20189;-59
2023/07/05 07:13:48;;;;;;;3.45;1.38;;;;;;;;;;5051745;28;20020;-61
2023/07/05 07:16:16;;;;;;;4.97;1.15;;;;;;;;;;5051213;28;20083;-61
2023/07/05 07:18:45;;;;;;;3.30;1.50;;;;;;;;;;5051481;28;20033;-62
2023/07/05 07:21:12;;;;;;;3.92;1.15;;;;;;;;;;5051633;28;20021;-61
2023/07/05 07:23:40;;;;;;;2.28;1.48;;;;;;;;;;5051761;28;20447;-60
2023/07/05 07:26:09;;;;;;;2.85;1.42;;;;;;;;;;5051506;28;20075;-60
2023/07/05 07:28:36;;;;;;;2.10;1.15;;;;;;;;;;5054716;28;20020;-60
2023/07/05 07:31:14;;;;;;;2.22;1.23;;;;;;;;;;5071961;28;20417;-59
2023/07/05 07:33:41;;;;;;;2.53;1.15;;;;;;;;;;5071634;28;20024;-59
2023/07/05 07:36:12;;;;;;;2.63;1.17;;;;;;;;;;5071376;28;20112;-60
2023/07/05 07:38:39;;;;;;;3.03;1.30;;;;;;;;;;5071406;28;20028;-59
2023/07/05 07:41:36;;;;;;;3.10;1.30;;;;;;;;;;5071609;28;20355;-58
2023/07/05 07:44:04;;;;;;;2.60;1.40;;;;;;;;;;5058524;28;20040;-61
2023/07/05 07:46:32;;;;;;;2.28;1.00;;;;;;;;;;5071467;28;20040;-61
2023/07/05 07:49:00;;;;;;;2.20;1.13;;;;;;;;;;5071495;28;20078;-59
2023/07/05 07:51:29;;;;;;;3.10;1.25;;;;;;;;;;5071441;28;20017;-59
2023/07/05 07:53:56;;;;;;;2.63;1.40;;;;;;;;;;5071436;28;20046;-59
2023/07/05 07:56:24;;;;;;;1.67;1.00;;;;;;;;;;5071191;28;20094;-60
2023/07/05 07:58:52;;;;;;;2.13;1.20;;;;;;;;;;5071416;28;20032;-61
2023/07/05 08:01:24;;;;;;;1.80;1.02;;;;;;;;;;5071318;28;20021;-58
2023/07/05 08:03:51;;;;;;;1.85;1.13;;;;;;;;;;5071415;28;20042;-60
2023/07/05 08:06:18;;;;;;;2.95;1.10;;;;;;;;;;5071269;28;20028;-58
2023/07/05 08:08:45;;;;;;;1.92;1.02;;;;;;;;;;5071261;28;20025;-60
2023/07/05 08:11:12;;;;;;;2.22;1.23;;;;;;;;;;5071149;28;20107;-56
2023/07/05 08:13:40;;;;;;;3.08;1.30;;;;;;;;;;5071275;28;20426;-56
2023/07/05 08:16:08;;;;;;;1.88;1.15;;;;;;;;;;5070962;28;20029;-56
2023/07/05 08:18:35;;;;;;;1.98;1.00;;;;;;;;;;5071040;28;20025;-57
2023/07/05 08:21:02;;;;;;;6.22;1.20;;;;;;;;;;5071160;28;20038;-56
2023/07/05 08:23:29;;;;;;;2.00;1.13;;;;;;;;;;5071109;28;20025;-56
2023/07/05 08:25:56;;;;;;;3.05;0.80;;;;;;;;;;5071932;28;20396;-55
2023/07/05 08:28:24;;;;;;;2.22;1.17;;;;;;;;;;5074867;28;20118;-54
2023/07/05 08:30:58;;;;;;;1.90;0.98;;;;;;;;;;5074849;28;20025;-55
2023/07/05 08:33:26;;;;;;;2.42;1.00;;;;;;;;;;5074648;28;20032;-56
2023/07/05 08:36:05;;;;;;;1.95;0.90;;;;;;;;;;5074521;28;20035;-57
2023/07/05 08:38:32;;;;;;;1.63;0.85;;;;;;;;;;5074726;28;20024;-57
2023/07/05 08:41:07;;;;;;;1.33;0.80;;;;;;;;;;5074645;28;20021;-55
2023/07/05 08:43:34;;;;;;;2.95;0.90;;;;;;;;;;5074662;28;20474;-56
2023/07/05 08:46:06;;;;;;;1.60;0.90;;;;;;;;;;5074527;28;20112;-56
2023/07/05 08:48:34;;;;;;;1.45;0.70;;;;;;;;;;5074576;28;20032;-56
2023/07/05 08:51:02;;;;;;;1.00;0.80;;;;;;;;;;5074449;28;20033;-56
2023/07/05 08:53:29;;;;;;;1.67;0.80;;;;;;;;;;5074552;28;20052;-56
2023/07/05 08:56:05;;;;;;;2.03;0.93;;;;;;;;;;5074328;28;20021;-56
2023/07/05 08:58:37;;;;;;;2.22;0.90;;;;;;;;;;5074363;28;20036;-56
2023/07/05 09:01:06;;;;;;;1.98;0.98;;;;;;;;;;5074247;28;20027;-55
2023/07/05 09:03:33;;;;;;;1.20;0.80;;;;;;;;;;5074288;28;20040;-56
2023/07/05 09:06:10;;;;;;;1.90;1.02;;;;;;;;;;5074228;28;20111;-57
2023/07/05 09:08:43;;;;;;;1.95;0.82;;;;;;;;;;5073944;28;20029;-56
2023/07/05 09:11:16;;;;;;;2.88;0.90;;;;;;;;;;5074030;28;20130;-56
2023/07/05 09:13:43;;;;;;;1.52;1.00;;;;;;;;;;5074122;28;20548;-56
2023/07/05 09:16:22;;;;;;;1.85;1.10;;;;;;;;;;5073930;28;20032;-55
2023/07/05 09:18:58;;;;;;;1.83;0.90;;;;;;;;;;5074019;28;20024;-57
2023/07/05 09:21:33;;;;;;;2.47;0.80;;;;;;;;;;5073860;28;20069;-56
2023/07/05 09:24:10;;;;;;;1.33;0.85;;;;;;;;;;5057883;28;20430;-56
2023/07/05 09:26:39;;;;;;;1.60;0.85;;;;;;;;;;5053703;28;20037;-56
2023/07/05 09:29:09;;;;;;;3.45;0.70;;;;;;;;;;5053475;28;20047;-56
2023/07/05 09:31:36;;;;;;;2.60;0.93;;;;;;;;;;5053700;28;20021;-56
2023/07/05 09:34:29;;;;;;;3.20;0.80;;;;;;;;;;5053701;28;20845;-55
2023/07/05 09:36:56;;;;;;;3.20;0.80;;;;;;;;;;5051563;28;20403;-54
2023/07/05 09:39:37;;;;;;;1.50;0.90;;;;;;;;;;5053066;28;20028;-56
2023/07/05 09:42:06;;;;;;;4.68;0.90;;;;;;;;;;5052511;28;20036;-59
2023/07/05 09:44:33;;;;;;;1.42;0.80;;;;;;;;;;5050307;28;20056;-56
2023/07/05 09:47:00;;;;;;;4.07;1.10;;;;;;;;;;5053324;28;20437;-55
2023/07/05 09:49:27;;;;;;;5.60;1.42;;;;;;;;;;5053397;28;20064;-56
2023/07/05 09:51:55;;;;;;;5.55;1.23;;;;;;;;;;5053165;28;20475;-56
2023/07/05 09:54:29;;;;;;;5.50;1.20;;;;;;;;;;5053379;28;20021;-56
2023/07/05 09:56:56;;;;;;;4.65;1.40;;;;;;;;;;5053318;28;20029;-55
2023/07/05 09:59:24;;;;;;;4.18;1.15;;;;;;;;;;5053241;28;20369;-56
2023/07/05 10:01:53;;;;;;;2.17;1.13;;;;;;;;;;5053121;28;20041;-55
2023/07/05 10:04:26;;;;;;;3.47;1.00;;;;;;;;;;5052906;28;20036;-61
2023/07/05 10:06:52;;;;;;;;;;;;;;;;;;5053375;28;20087;-59
2023/07/05 10:09:21;;;;;;;5.45;1.20;;;;;;;;;;5053007;28;19923;-60
2023/07/05 10:11:50;;;;;;;5.68;0.90;;;;;;;;;;5052443;28;20029;-61
2023/07/05 10:14:20;;;;;;;1.73;0.82;;;;;;;;;;5052863;28;20040;-59
2023/07/05 10:16:48;;;;;;;1.33;0.80;;;;;;;;;;5052282;28;20434;-60
2023/07/05 10:19:24;;;;;;;2.55;0.95;;;;;;;;;;5052812;28;20021;-58
2023/07/05 10:22:00;;;;;;;1.42;0.88;;;;;;;;;;5052690;28;20049;-60
2023/07/05 10:24:27;;;;;;;3.65;1.00;;;;;;;;;;5051883;28;20027;-56
2023/07/05 10:27:09;;;;;;;2.63;1.02;;;;;;;;;;5053338;28;20075;-57
2023/07/05 10:29:36;;;;;;;2.22;0.90;;;;;;;;;;5050761;28;20827;-57
2023/07/05 10:32:04;;;;;;;2.33;1.10;;;;;;;;;;5051859;28;20028;-56
2023/07/05 10:34:31;;;;;;;3.55;0.73;;;;;;;;;;5047360;28;20099;-50
2023/07/05 10:36:58;;;;;;;6.78;1.15;;;;;;;;;;5053195;28;20033;-59
2023/07/05 10:39:26;;;;;;;4.95;0.90;;;;;;;;;;5051703;28;20395;-57
2023/07/05 10:41:57;;;;;;;3.58;0.85;;;;;;;;;;5051551;28;20017;-56
2023/07/05 10:44:27;;;;;;;2.38;0.90;;;;;;;;;;5049483;28;20131;-50
2023/07/05 10:46:56;;;;;;;2.40;0.80;;;;;;;;;;5050312;28;20032;-60
2023/07/05 10:49:23;;;;;;;2.92;0.93;;;;;;;;;;5048510;28;20143;-60
2023/07/05 10:51:51;;;;;;;1.27;0.70;;;;;;;;;;5051496;28;20032;-55
2023/07/05 10:54:37;;;;;;;3.90;0.60;;;;;;;;;;5050284;28;20021;-61
2023/07/05 10:57:10;;;;;;;1.98;0.80;;;;;;;;;;5047767;28;20032;-58
2023/07/05 10:59:45;;;;;;;2.35;0.70;;;;;;;;;;5051346;28;20033;-57
2023/07/05 11:02:22;;;;;;;1.55;0.80;;;;;;;;;;5051228;28;20040;-55
2023/07/05 11:04:50;;;;;;;4.30;0.93;;;;;;;;;;5049682;28;20056;-59
2023/07/05 11:07:18;;;;;;;3.80;0.95;;;;;;;;;;5049538;28;20497;-59
2023/07/05 11:09:45;;;;;;;2.00;0.75;;;;;;;;;;5051811;28;20032;-59
2023/07/05 11:12:17;;;;;;;3.92;0.85;;;;;;;;;;5051376;28;20395;-59
2023/07/05 11:14:45;;;;;;;2.97;0.80;;;;;;;;;;5048682;28;20029;-60
2023/07/05 11:17:19;;;;;;;2.53;0.93;;;;;;;;;;5049611;28;20048;-60
2023/07/05 11:19:46;;;;;;;3.05;0.98;;;;;;;;;;5049341;28;20033;-58
2023/07/05 11:22:45;;;;;;;2.80;0.77;;;;;;;;;;5051013;28;20025;-54
2023/07/05 11:25:16;;;;;;;2.60;0.70;;;;;;;;;;5000856;28;20041;-58
2023/07/05 11:27:50;;;;;;;2.85;1.10;;;;;;;;;;5047235;28;20044;-59
2023/07/05 11:30:35;;;;;;;5.45;0.90;;;;;;;;;;5049413;28;20450;-58
2023/07/05 11:33:05;;;;;;;3.22;0.98;;;;;;;;;;5048679;28;20044;-57
2023/07/05 11:36:08;;;;;;;3.05;1.08;;;;;;;;;;5047707;28;20032;-58
2023/07/05 11:38:40;;;;;;;1.35;0.77;;;;;;;;;;5001950;28;20052;-58
2023/07/05 11:41:12;;;;;;;2.17;0.80;;;;;;;;;;5050776;28;20086;-59
2023/07/05 11:43:41;;;;;;;2.45;0.90;;;;;;;;;;5048328;28;20036;-58
2023/07/05 11:46:26;;;;;;;2.65;1.10;;;;;;;;;;5051553;28;20029;-50
2023/07/05 11:48:54;;;;;;;4.28;0.98;;;;;;;;;;5049259;28;20044;-61
2023/07/05 11:51:30;;;;;;;4.45;1.10;;;;;;;;;;5047671;28;20028;-60
2023/07/05 11:53:58;;;;;;;2.70;1.00;;;;;;;;;;5050639;28;20064;-58
2023/07/05 11:56:26;;;;;;;3.28;0.90;;;;;;;;;;5050501;28;20475;-55
2023/07/05 11:58:54;;;;;;;4.40;0.90;;;;;;;;;;5050604;28;20033;-55
2023/07/05 12:01:26;;;;;;;3.33;1.00;;;;;;;;;;5048256;28;20037;-57
2023/07/05 12:03:56;;;;;;;4.43;0.93;;;;;;;;;;5054732;28;20057;-54
2023/07/05 12:06:27;;;;;;;2.83;0.82;;;;;;;;;;5055027;28;20086;-56
2023/07/05 12:09:01;;;;;;;4.90;0.90;;;;;;;;;;5054837;28;20395;-51
2023/07/05 12:11:31;;;;;;;6.50;1.40;;;;;;;;;;5051252;28;20036;-59
2023/07/05 12:14:04;;;;;;;8.57;1.30;;;;;;;;;;5054271;28;20479;-57
2023/07/05 12:16:31;;;;;;;4.15;1.10;;;;;;;;;;5054663;28;20102;-61
2023/07/05 12:19:00;;;;;;;9.43;1.40;;;;;;;;;;5053563;28;20033;-58
2023/07/05 12:21:27;;;;;;;6.25;1.38;;;;;;;;;;5054822;28;20111;-59
2023/07/05 12:23:54;;;;;;;6.05;1.30;;;;;;;;;;5055020;28;20025;-59
2023/07/05 12:26:32;;;;;;;8.20;1.48;;;;;;;;;;5054821;28;20052;-60
2023/07/05 12:29:03;;;;;;;4.28;1.50;;;;;;;;;;5055021;28;20493;-60
2023/07/05 12:31:31;;;;;;;4.50;1.33;;;;;;;;;;5054762;28;20429;-57
2023/07/05 12:34:04;;;;;;;3.72;1.63;;;;;;;;;;5054755;28;20037;-59
2023/07/05 12:36:43;;;;;;;3.33;1.20;;;;;;;;;;5054781;28;20475;-61
2023/07/05 12:39:14;;;;;;;6.80;1.33;;;;;;;;;;5054806;28;20047;-59
2023/07/05 12:41:41;;;;;;;5.93;1.08;;;;;;;;;;5054607;28;20087;-58
2023/07/05 12:44:18;;;;;;;8.30;1.40;;;;;;;;;;5054684;28;20032;-59
2023/07/05 12:46:45;;;;;;;2.58;1.13;;;;;;;;;;5054572;28;20074;-60
2023/07/05 12:49:13;;;;;;;7.38;1.33;;;;;;;;;;5054568;28;20029;-59
2023/07/05 12:51:54;;;;;;;3.92;1.33;;;;;;;;;;5054450;28;20406;-59
2023/07/05 12:54:21;;;;;;;3.42;1.20;;;;;;;;;;5054411;28;20047;-60
2023/07/05 12:56:49;;;;;;;3.17;1.23;;;;;;;;;;5054406;28;20037;-61
2023/07/05 12:59:36;;;;;;;3.60;1.15;;;;;;;;;;5054298;28;20087;-59
2023/07/05 13:02:09;;;;;;;4.15;1.20;;;;;;;;;;5054170;28;20464;-59
2023/07/05 13:04:39;;;;;;;3.50;1.20;;;;;;;;;;5054248;28;20120;-60
2023/07/05 13:07:07;;;;;;;6.18;1.38;;;;;;;;;;5054267;28;20487;-57
2023/07/05 13:09:35;;;;;;;3.70;1.08;;;;;;;;;;5054190;28;20017;-59
2023/07/05 13:12:12;;;;;;;7.55;1.77;;;;;;;;;;5053463;28;20032;-60
2023/07/05 13:14:43;;;;;;;3.00;0.90;;;;;;;;;;5053971;28;20060;-57
2023/07/05 13:17:13;;;;;;;3.75;1.30;;;;;;;;;;5053966;28;20036;-59
2023/07/05 13:19:44;;;;;;;1.60;1.10;;;;;;;;;;5053992;28;20032;-59
2023/07/05 13:22:16;;;;;;;6.83;1.30;;;;;;;;;;5053892;28;20414;-59
2023/07/05 13:24:47;;;;;;;2.47;1.10;;;;;;;;;;5053642;28;20049;-60
2023/07/05 13:27:21;;;;;;;2.35;1.30;;;;;;;;;;5053806;28;20032;-57
2023/07/05 13:29:48;;;;;;;3.90;1.17;;;;;;;;;;5053812;28;20032;-59
2023/07/05 13:32:25;;;;;;;1.95;1.00;;;;;;;;;;5053679;28;20103;-58
2023/07/05 13:34:52;;;;;;;6.70;1.33;;;;;;;;;;5053747;28;20037;-57
2023/07/05 13:37:21;;;;;;;3.13;1.20;;;;;;;;;;5053594;28;20369;-59
2023/07/05 13:39:48;;;;;;;3.72;1.40;;;;;;;;;;5053657;28;20064;-56
2023/07/05 13:42:15;;;;;;;3.88;1.40;;;;;;;;;;5053498;28;20041;-59
2023/07/05 13:44:46;;;;;;;5.15;1.30;;;;;;;;;;5053541;28;20056;-59
2023/07/05 13:47:17;;;;;;;3.08;1.40;;;;;;;;;;5053407;28;20037;-58
2023/07/05 13:49:44;;;;;;;2.92;1.50;;;;;;;;;;5053551;28;20100;-58
2023/07/05 13:52:19;;;;;;;2.42;1.20;;;;;;;;;;5053352;28;20021;-59
2023/07/05 13:54:47;;;;;;;2.60;1.20;;;;;;;;;;5053316;28;20025;-58
2023/07/05 13:57:15;;;;;;;3.22;1.48;;;;;;;;;;5053428;28;20036;-59
2023/07/05 13:59:42;;;;;;;3.67;1.38;;;;;;;;;;5053357;28;20033;-60
2023/07/05 14:02:25;;;;;;;3.60;1.50;;;;;;;;;;5051851;28;20079;-59
2023/07/05 14:04:53;;;;;;;2.33;1.20;;;;;;;;;;5053488;28;20412;-57
2023/07/05 14:07:20;;;;;;;3.35;1.63;;;;;;;;;;5053008;28;20068;-60
2023/07/05 14:09:47;;;;;;;2.45;1.30;;;;;;;;;;5053072;28;20021;-59
2023/07/05 14:12:19;;;;;;;2.97;1.13;;;;;;;;;;5053040;28;20507;-59
2023/07/05 14:14:46;;;;;;;2.78;1.38;;;;;;;;;;5053017;28;20029;-59
2023/07/05 14:17:21;;;;;;;2.50;1.40;;;;;;;;;;5052844;28;20029;-58
2023/07/05 14:19:48;;;;;;;2.90;1.17;;;;;;;;;;5052971;28;20029;-58
2023/07/05 14:22:20;;;;;;;1.88;1.10;;;;;;;;;;5052657;28;20033;-58
2023/07/05 14:24:52;;;;;;;2.55;1.17;;;;;;;;;;5052353;28;20122;-61
2023/07/05 14:27:21;;;;;;;2.00;1.10;;;;;;;;;;5052689;28;20039;-59
2023/07/05 14:29:49;;;;;;;1.45;1.02;;;;;;;;;;5052724;28;20032;-59
2023/07/05 14:32:18;;;;;;;1.52;1.00;;;;;;;;;;5052493;28;20045;-59
2023/07/05 14:34:45;;;;;;;2.35;1.17;;;;;;;;;;5052629;28;20071;-59
2023/07/05 14:37:13;;;;;;;1.80;1.10;;;;;;;;;;5052508;28;20032;-59
2023/07/05 14:39:40;;;;;;;1.73;0.93;;;;;;;;;;5052502;28;20484;-60
2023/07/05 14:42:07;;;;;;;2.58;1.20;;;;;;;;;;5052354;28;20029;-60
2023/07/05 14:44:34;;;;;;;2.70;1.05;;;;;;;;;;5052446;28;20372;-57
2023/07/05 14:47:02;;;;;;;4.15;1.48;;;;;;;;;;5052334;28;20037;-57
2023/07/05 14:49:29;;;;;;;1.95;1.00;;;;;;;;;;5052228;28;20519;-58
2023/07/05 14:51:56;;;;;;;1.58;0.98;;;;;;;;;;5052203;28;20021;-59